Weather observations for the past three days for
Concord Regional Airport
Metric (Imperial)
Date Time (edt) Wind (kph) Vis. (km) Weather Sky Cond. Temperature (ºC) Relative Humidity Wind Chill (°C) Heat Index (°C) Pressure Precipitation (cm)
Air Dwpt 6 hour altimeter (cm) sea level (mb) 1 hr 3 hr 6 hr
Max. Min.
04 20:50 S 7 16.09 Fair CLR 22 3 29% 76.15 0.0
04 18:50 S 9 G 26 16.09 Fair CLR 25 2 22% 25 76.1 0.0
04 17:50 SW 11 G 196 16.09 Fair CLR 26 0 18% 25 76.1 0.0
04 16:50 SW 17 G 30 16.09 Fair CLR 27 1 18% 26 76.1 0.0
04 15:50 SW 11 16.09 Fair CLR 26 2 21% 26 76.15 0.0
04 14:50 SE 9 16.09 Fair CLR 25 1 21% 25 76.23 0.0
04 13:50 Calm 16.09 Fair CLR 24 -1 19% 24 76.28 0.0
04 12:50 Calm 16.09 Fair CLR 23 2 25% 76.33 0.0
04 11:50 SW 6 16.09 Fair CLR 22 3 29% 76.4 0.0
04 10:50 Calm 16.09 Fair CLR 20 4 35% 76.4 0.0
04 09:50 Calm 16.09 Fair CLR 17 7 52% 76.4 0.0
04 08:50 Calm 16.09 Fair CLR 14 7 63% 76.4 0.0
04 06:50 Calm 16.09 Fair CLR 6 4 87% 76.38 0.0
04 06:15 Calm 16.09 Fair CLR 6 4 87% 76.35 0.0
04 05:55 Calm 16.09 Fair CLR 6 5 93% 76.38 0.0
04 05:35 Calm 16.09 Fair CLR 7 5 87% 76.38 0.0
04 05:15 N 6 16.09 Fair CLR 8 5 82% 76.38 0.0
04 04:55 Calm 16.09 Fair CLR 7 5 87% 76.35 0.0
04 04:35 Calm 16.09 Fair CLR 8 5 82% 76.33 0.0
04 04:15 Calm 16.09 Fair CLR 8 5 82% 76.33 0.0
04 03:55 SE 6 16.09 Fair CLR 9 5 76% 76.33 0.0
04 03:35 Calm 16.09 Fair CLR 8 5 82% 76.33 0.0
04 03:15 Calm 16.09 Fair CLR 8 5 82% 76.33 0.0
04 02:55 Calm 16.09 Fair CLR 9 5 76% 76.33 0.0
04 02:15 SE 6 16.09 Fair CLR 9 5 76% 76.35 0.0
04 01:55 Calm 16.09 Fair CLR 10 5 71% 76.35 0.0
04 01:35 Calm 16.09 Fair CLR 12 5 63% 76.35 0.0
04 01:15 S 6 16.09 Fair CLR 11 5 67% 76.35 0.0
04 00:55 Calm 16.09 Fair CLR 12 5 63% 76.35 0.0
04 00:35 Calm 16.09 Fair CLR 12 5 63% 76.35 0.0
04 00:15 Calm 16.09 Fair CLR 13 4 55% 76.38 0.0
03 23:55 Calm 16.09 Fair CLR 13 4 55% 76.38 0.0
03 23:50 Calm 16.09 Fair CLR 14 4 51% 76.38 0.0
03 23:35 Calm 16.09 Fair CLR 13 4 55% 76.38 0.0
03 23:15 Calm 16.09 Fair CLR 13 3 51% 76.38 0.0
03 22:55 Calm 16.09 Fair CLR 13 3 51% 76.38 0.0
03 22:50 Calm 16.09 Fair CLR 14 4 51% 76.38 0.0
03 21:50 Calm 16.09 Fair CLR 14 3 48% 76.33 0.0
03 20:50 Calm 16.09 Fair CLR 15 2 42% 76.28 0.0
03 19:50 SW 7 G 28 16.09 Fair CLR 18 1 32% 76.25 0.0
03 18:50 W 7 G 28 16.09 Fair CLR 20 0 26% 76.28 0.0
03 17:50 SW 11 G 31 16.09 Fair CLR 21 -1 23% 76.3 0.0
03 15:50 W 13 G 37 16.09 Fair CLR 21 0 25% 76.38 0.0
03 14:50 NW 13 G 37 16.09 Fair CLR 20 0 26% 76.45 0.0
03 12:50 N 17 G 30 16.09 Fair CLR 18 -1 28% 76.5 0.0
03 11:50 N 11 G 30 16.09 Fair CLR 17 -1 30% 76.61 0.0
03 10:50 NW 15 G 37 16.09 Fair CLR 16 -1 31% 76.63 0.0
03 09:50 N 17 G 26 16.09 Fair CLR 14 1 41% 76.61 0.0
03 08:50 Calm 16.09 Fair CLR 11 2 54% 76.61 0.0
03 07:50 Calm 16.09 Fair CLR 7 4 81% 76.58 0.0
03 06:50 Calm 16.09 Fair CLR 3 2 93% 76.5 0.0
03 06:15 Calm 16.09 Fair CLR 2 1 93% 76.45 0.0
03 05:55 Calm 16.09 Fair CLR 3 2 93% 76.45 0.0
03 05:35 Calm 16.09 Fair CLR 3 2 93% 76.43 0.0
03 05:15 Calm 16.09 Fair CLR 3 2 93% 76.4 0.0
03 04:55 Calm 16.09 Fair CLR 3 2 93% 76.4 0.0
03 04:35 Calm 16.09 Fair CLR 3 2 93% 76.4 0.0
03 04:15 Calm 16.09 Fair CLR 3 2 93% 76.38 0.0
03 03:55 N 7 16.09 Fair CLR 3 2 93% 1 76.35 0.0
03 03:35 N 6 16.09 Fair CLR 3 2 93% 76.35 0.0
03 03:15 Calm 16.09 Fair CLR 5 3 87% 76.33 0.0
03 02:55 Calm 16.09 Fair CLR 4 3 93% 76.33 0.0
03 02:35 Calm 16.09 Fair CLR 3 3 100% 76.3 0.0
03 02:15 Calm 16.09 Fair CLR 3 2 93% 76.3 0.0
03 01:55 Calm 16.09 Fair CLR 4 3 93% 76.3 0.0
03 01:35 Calm 16.09 Fair CLR 4 3 93% 76.3 0.0
03 01:15 Calm 16.09 Fair CLR 5 3 87% 76.3 0.0
03 00:55 Calm 16.09 Fair CLR 5 3 87% 76.28 0.0
03 00:35 Calm 16.09 Fair CLR 5 3 87% 76.28 0.0
03 00:15 Calm 16.09 Fair CLR 5 3 87% 76.28 0.0
02 23:55 Calm 16.09 Partly Cloudy SCT110 5 2 81% 76.25 0.0
02 23:35 Calm 16.09 Partly Cloudy SCT110 6 2 76% 76.25 0.0
02 23:15 Calm 16.09 Fair CLR 6 3 81% 76.23 0.0
02 22:55 Calm 16.09 Fair CLR 6 3 81% 76.23 0.0
02 21:50 Calm 16.09 Fair CLR 8 3 71% 76.17 0.0
02 20:50 Calm 16.09 Mostly Cloudy SCT075 BKN090 12 3 54% 76.12 0.0
02 18:50 Calm 16.09 Fair CLR 16 1 36% 75.97 0.0
02 17:50 Calm 16.09 Fair CLR 16 1 36% 75.97 0.0
02 16:50 NE 11 16.09 Mostly Cloudy BKN065 16 2 39% 75.97 0.0
02 15:55 N 7 16.09 Overcast OVC070 16 2 39% 75.97 0.0
02 14:50 NE 17 16.09 Mostly Cloudy BKN050 BKN065 15 4 48% 76.05 0.0
02 13:50 NE 9 16.09 Overcast OVC050 16 6 52% 76.05 0.0
02 12:50 NE 13 16.09 Overcast OVC045 14 7 63% 76.1 0.0
02 11:50 E 9 16.09 Overcast OVC050 13 9 77% 76.12 0.0
02 10:50 E 13 16.09 Overcast OVC044 13 8 72% 76.15 0.0
02 09:50 E 13 16.09 Overcast OVC047 13 8 72% 76.12 0.0
02 08:50 N 11 16.09 Overcast OVC047 13 8 72% 76.07 0.0
02 07:50 N 13 16.09 Overcast OVC045 13 8 72% 76.05 0.0
02 06:50 N 9 16.09 Overcast OVC035 13 9 77% 76 0.0
02 06:15 Calm 16.09 Light Drizzle OVC031 13 10 82% 76 0.0
02 05:55 N 7 16.09 Light Rain OVC029 13 10 82% 76.02 0.0
02 05:35 N 7 16.09 Light Drizzle BKN029 BKN050 OVC100 12 11 94% 76.05 0.0
02 05:15 N 7 16.09 Rain BKN031 BKN050 OVC090 12 11 94% 76.05 0.0
02 04:55 NW 6 16.09 Drizzle OVC032 13 11 88% 76.07 0.0
02 04:35 N 6 16.09 Overcast BKN034 OVC048 12 10 88% 76.07 0.0
02 04:15 N 11 16.09 Overcast SCT034 BKN048 OVC100 12 10 88% 76.05 0.0
02 03:55 N 9 16.09 Overcast SCT100 OVC120 12 10 88% 76.02 0.0
02 03:35 Calm 16.09 Overcast OVC120 12 10 88% 75.97 0.0
02 03:15 Calm 16.09 Mostly Cloudy BKN120 12 10 88% 75.95 0.0
02 02:55 Calm 16.09 Fair CLR 12 10 88% 75.97 0.0
02 02:35 Calm 16.09 Fair CLR 12 10 88% 75.97 0.0
02 02:15 Calm 16.09 Fair CLR 12 10 88% 76 0.0
02 01:55 Calm 16.09 Fair CLR 12 10 88% 76 0.0
02 01:35 Calm 16.09 Fair CLR 12 10 88% 76.02 0.0
02 01:15 Calm 16.09 Fair CLR 12 10 88% 76.02 0.0
02 00:55 Calm 16.09 Fair CLR 12 10 88% 76.05 0.0
02 00:35 Calm 16.09 Fair CLR 12 10 88% 76.02 0.0
02 00:15 Calm 16.09 Fair CLR 12 10 88% 76.05 0.0
01 23:55 Calm 16.09 Fair CLR 12 10 88% 76.05 0.0
01 23:35 Calm 16.09 Fair CLR 12 10 88% 76.05 0.0
01 23:15 Calm 16.09 Fair CLR 13 10 82% 76.07 0.0
01 22:55 Calm 16.09 Fair CLR 13 10 82% 76.07 0.0
01 22:50 Calm 16.09 Fair CLR 14 10 77% 76.07 0.0
01 21:50 Calm 16.09 Fair CLR 14 9 72% 76.07 0.0
Date Time (edt) Wind (kph) Vis. (km) Weather Sky Cond. Air Dwpt Max. Min. Relative Humidity Wind Chill (°C) Heat Index (°C) altimeter (cm) sea level (mb) 1 hr 3 hr 6 hr
6 hour
Temperature (ºC) Pressure Precipitation (cm)